This is the latest recevied weather packets stored in our database for station/object VA3XLC. If no packets are shown the sender has not sent any weather packets the latest 10 day(s).
| Time | Temp. | Humidity | Pressure | Rain* | Wind** | Luminosity | Snow |
|---|---|---|---|---|---|---|---|
| 1777474523 | 8.89° C | 82% | 978.7 hPa | - | - | 431 W/m² | - |
| 1777471478 | 8.89° C | 89% | 979.5 hPa | - | - | 236 W/m² | - |
| 1777465689 | 9.44° C | 80% | 980.2 hPa | - | - | 38 W/m² | - |
| 1777459899 | 8.89° C | 79% | 979.9 hPa | - | - | 10 W/m² | - |
| 1777458998 | 8.89° C | 80% | 980 hPa | - | - | 3 W/m² | - |
| 1777458398 | 9.44° C | 80% | 980 hPa | - | - | 2 W/m² | - |
| 1777456296 | 9.44° C | 79% | 980 hPa | - | - | 0 W/m² | - |
| 1777455995 | 8.89° C | 79% | 980 hPa | - | - | 0 W/m² | - |
| 1777454794 | 8.89° C | 81% | 979.8 hPa | - | - | 0 W/m² | - |
| 1777453894 | 9.44° C | 80% | 979.9 hPa | - | - | 0 W/m² | - |
| 1777452693 | 9.44° C | 80% | 980.1 hPa | - | - | 0 W/m² | - |
| 1777452092 | 9.44° C | 81% | 980.1 hPa | - | - | 0 W/m² | - |
| 1777450248 | 8.89° C | 85% | 979.9 hPa | - | - | 0 W/m² | - |
| 1777449348 | 8.89° C | 88% | 980 hPa | - | - | 0 W/m² | - |
| 1777448126 | 8.33° C | 90% | 980.1 hPa | - | - | 0 W/m² | - |
| 1777447826 | 8.89° C | 90% | 980.1 hPa | - | - | 0 W/m² | - |
| 1777445402 | 9.44° C | 91% | 980 hPa | - | - | 0 W/m² | - |
| 1777442979 | 10° C | 87% | 979.6 hPa | - | - | 0 W/m² | - |
| 1777442679 | 10° C | 87% | 979.5 hPa | - | - | 0 W/m² | - |
| 1777433140 | 11.67° C | 80% | 980.1 hPa | - | - | 0 W/m² | - |
| 1777431918 | 11.67° C | 78% | 980.4 hPa | - | - | 0 W/m² | - |
| 1777431618 | 11.67° C | 78% | 980.5 hPa | - | - | 0 W/m² | - |
| 1777430074 | 11.67° C | 78% | 980.5 hPa | - | - | 0 W/m² | - |
| 1777427631 | 12.78° C | 75% | 980.7 hPa | - | - | 0 W/m² | - |
| 1777423621 | 13.33° C | 73% | 979.6 hPa | - | - | 0 W/m² | - |
* Rain since midnight (hover to see other rain measurements)
** Current wind speed in m/s (hover to see current wind gust speed)